Flight Track Log - Related Links

Times and Time Zones

All times are in EDT time to prevent confusion due to time zone crossing. See the DAL4165 flight status page for this flight to view local times or setup timezone preferences in your user account.


Time Position Orientation Groundspeed Altitude Reporting Facility
EDT Latitude Longitude Course Direction KTS MPH feet Rate Location/Type
Thu 07:36:03 PM 35.4622 -97.6097 18° North 216 249 3,800  Level Fort Worth Center
Thu 07:37:03 PM 35.4978 -97.5308 61° Northeast 221 254 6,800 2,650 Climbing Fort Worth Center
Thu 07:38:00 PM 35.4001 -97.0206 90° East  Level FlightAware Approximate
Thu 07:38:03 PM 35.4750 -97.4314 106° East 216 249 9,100  Level Fort Worth Center
Thu 07:39:00 PM 35.4000 -96.8755 90° East  Level FlightAware Approximate
Thu 07:39:03 PM 35.4561 -97.3192 102° East 279 321 11,700  Level Fort Worth Center
Thu 07:40:00 PM 35.4000 -96.7304 90° East  Level FlightAware Approximate
Thu 07:40:03 PM 35.4436 -97.1919 97° East 318 366 13,200  Level Fort Worth Center
Thu 07:41:03 PM 35.4433 -97.0544 90° East 361 415 14,200 1,050 Climbing Fort Worth Center
Thu 07:42:03 PM 35.4428 -96.9039 90° East 406 467 15,300 1,300 Climbing Fort Worth Center
Thu 07:43:03 PM 35.4400 -96.7461 91° East 432 497 16,800 1,500 Climbing Fort Worth Center
Thu 07:44:15 PM 35.4389 -96.5550 90° East 462 532 18,600 1,500 Climbing Fort Worth Center
Thu 07:45:15 PM 35.4356 -96.3894 91° East 474 545 20,100 1,500 Climbing Fort Worth Center
Thu 07:46:15 PM 35.4339 -96.2211 91° East 479 551 21,600 1,400 Climbing Fort Worth Center
Thu 07:47:15 PM 35.4303 -96.0556 91° East 479 551 22,900 1,200 Climbing Fort Worth Center
Thu 07:48:15 PM 35.4261 -95.8850 92° East 484 557 24,000 1,000 Climbing Fort Worth Center
Thu 07:49:15 PM 35.4264 -95.7322 90° East 491 565 24,900 950 Climbing Fort Worth Center
Thu 07:50:15 PM 35.4239 -95.5539 91° East 503 579 25,900 1,033 Climbing Fort Worth Center
Thu 07:51:17 PM 35.4164 -95.3528 93° East 517 595 27,000 934 Climbing Memphis Center
Thu 07:52:17 PM 35.4131 -95.1719 91° East 507 583 27,800 900 Climbing Memphis Center
Thu 07:53:17 PM 35.4075 -94.9856 92° East 527 606 28,800 1,100 Climbing Memphis Center
Thu 07:54:17 PM 35.4039 -94.8019 91° East 533 613 30,000 1,050 Climbing Memphis Center
Thu 07:55:17 PM 35.3978 -94.6133 92° East 539 620 30,900 500 Climbing Memphis Center
Thu 07:56:17 PM 35.3936 -94.4269 92° East 539 620 31,000  Climbing Memphis Center
Thu 07:57:17 PM 35.3831 -94.2381 94° East 546 628 30,900  Descending Memphis Center
Thu 07:58:17 PM 35.3697 -94.0542 95° East 551 634 31,000 500 Climbing Memphis Center
Thu 07:59:17 PM 35.3583 -93.8703 94° East 546 628 31,900 750 Climbing Memphis Center
Thu 08:00:17 PM 35.3447 -93.6867 95° East 541 623 32,500 950 Climbing Memphis Center
Thu 08:01:17 PM 35.3328 -93.5028 94° East 541 623 33,800 900 Climbing Memphis Center
Thu 08:02:17 PM 35.3219 -93.3472 95° East 535 616 34,300 600 Climbing Memphis Center
Thu 08:03:17 PM 35.3075 -93.1633 95° East 535 616 35,000 350 Climbing Memphis Center
Thu 08:04:17 PM 35.2908 -92.9772 96° East 540 621 35,000 350 Level Memphis Center
Thu 08:05:17 PM 35.2778 -92.7886 95° East 553 636 35,700 900 Climbing Memphis Center
Thu 08:06:17 PM 35.2586 -92.5947 97° East 561 646 36,800 650 Climbing Memphis Center
Thu 08:07:17 PM 35.2428 -92.4164 96° East 548 631 37,000 100 Climbing Memphis Center
Thu 08:08:17 PM 35.2292 -92.2331 95° East 540 621 37,000  Level Memphis Center
Thu 08:09:17 PM 35.2128 -92.0497 96° East 540 621 37,000  Level Memphis Center
Thu 08:10:17 PM 35.1964 -91.8689 96° East 540 621 37,000  Level Memphis Center
Thu 08:11:17 PM 35.1819 -91.6858 95° East 540 621 37,000  Level Memphis Center
Thu 08:12:17 PM 35.1647 -91.5078 97° East 540 621 37,000  Level Memphis Center
Thu 08:13:17 PM 35.1519 -91.3144 95° East 540 621 37,000  Level Memphis Center
Thu 08:14:17 PM 35.1239 -91.1392 101° East 523 602 37,000  Level Memphis Center
Thu 08:15:17 PM 35.0914 -90.9864 105° East 517 595 37,000 -50 Level Memphis Center
Thu 08:16:17 PM 35.0586 -90.8264 104° East 500 575 36,900  Descending Memphis Center
Thu 08:17:17 PM 35.0217 -90.6717 106° East 484 557 37,000 50 Climbing Memphis Center
Thu 08:18:17 PM 34.9758 -90.5142 110° East 479 551 37,000  Level Memphis Center
Thu 08:19:17 PM 34.9447 -90.3519 103° East 484 557 37,000  Level Memphis Center
Thu 08:20:17 PM 34.9133 -90.1875 103° East 491 565 37,000  Level Memphis Center
Thu 08:21:17 PM 34.8775 -90.0231 105° East 491 565 37,000  Level Memphis Center
Thu 08:22:17 PM 34.8331 -89.8283 105° East 504 580 37,000  Level Memphis Center
Thu 08:23:17 PM 34.7967 -89.6517 104° East 524 603 37,000  Level Memphis Center
Thu 08:24:17 PM 34.7811 -89.4847 96° East 544 626 37,000  Level Memphis Center
Thu 08:25:17 PM 34.7506 -89.3133 102° East 539 620 37,000  Level Memphis Center
Thu 08:26:17 PM 34.7008 -89.1472 110° East 525 604 37,000  Level Memphis Center
Thu 08:27:17 PM 34.6431 -88.9889 114° Southeast 515 593 37,000  Level Memphis Center
Thu 08:28:17 PM 34.5828 -88.8336 115° Southeast 502 578 37,000  Level Memphis Center
Thu 08:29:17 PM 34.5222 -88.6708 114° Southeast 496 571 37,000  Level Memphis Center
Thu 08:30:17 PM 34.4636 -88.5183 115° Southeast 501 577 37,000  Level Memphis Center
Thu 08:31:17 PM 34.4194 -88.3556 108° East 501 577 37,000  Level Memphis Center
Thu 08:32:17 PM 34.4375 -88.1889 82° East 475 547 37,000  Level Memphis Center
Thu 08:33:17 PM 34.4697 -88.0142 77° East 505 581 37,000  Level Memphis Center
Thu 08:34:17 PM 34.5064 -87.8519 75° East 505 581 37,000  Level Memphis Center
Thu 08:35:17 PM 34.5425 -87.6819 75° East 511 588 37,000 -231 Level Memphis Center
Thu 08:36:53 PM 34.5928 -87.4325 76° East 522 601 36,400 -692 Descending Atlanta Center
Thu 08:37:53 PM 34.5850 -87.2506 93° East 529 609 35,200 -1,200 Descending Atlanta Center
Thu 08:38:53 PM 34.5519 -87.0728 103° East 529 609 34,000 -1,100 Descending Atlanta Center
Thu 08:39:53 PM 34.5167 -86.9000 104° East 529 609 33,000 -550 Descending Atlanta Center
Thu 08:40:53 PM 34.4831 -86.7225 103° East 529 609 32,900 -750 Descending Atlanta Center
Thu 08:41:53 PM 34.4492 -86.5453 103° East 529 609 31,500 -1,500 Descending Atlanta Center
Thu 08:42:53 PM 34.4169 -86.3756 103° East 529 609 29,900 -1,750 Descending Atlanta Center
Thu 08:43:53 PM 34.3847 -86.2061 103° East 523 602 28,000 -1,850 Descending Atlanta Center
Thu 08:44:53 PM 34.3497 -86.0442 105° East 512 589 26,200 -1,950 Descending Atlanta Center
Thu 08:45:53 PM 34.3208 -85.8900 103° East 487 560 24,100 -2,100 Descending Atlanta Center
Thu 08:46:53 PM 34.2939 -85.7411 102° East 463 533 22,000 -2,100 Descending Atlanta Center
Thu 08:47:53 PM 34.2583 -85.5869 106° East 463 533 19,900 -2,150 Descending Atlanta Center
Thu 08:48:53 PM 34.2289 -85.4383 103° East 458 527 17,700 -2,150 Descending Atlanta Center
Thu 08:49:53 PM 34.1992 -85.2894 104° East 434 499 15,600 -2,000 Descending Atlanta Center
Thu 08:50:53 PM 34.1711 -85.1561 104° East 413 475 13,700 -1,350 Descending Atlanta Center
Thu 08:51:53 PM 34.1136 -85.0550 124° Southeast 391 450 12,900 -350 Descending Atlanta Center
Thu 08:52:53 PM 34.0558 -84.9817 134° Southeast 346 398 13,000 -550 Climbing Atlanta Center
Thu 08:53:53 PM 33.9978 -84.9108 135° Southeast 302 348 11,800 -950 Descending Atlanta Center
Thu 08:54:53 PM 33.9461 -84.8428 132° Southeast 280 322 11,100 -1,100 Descending Atlanta Center
Thu 08:55:53 PM 33.8858 -84.8194 162° South 249 287 9,600 -1,350 Descending Atlanta Center
Thu 08:56:53 PM 33.8211 -84.8039 169° South 241 277 8,400 -1,215 Descending Atlanta Center
Thu 08:57:12 PM 33.8000 -84.8000 171° South 225 259 8,000 -1,519 Descending Atlanta TRACON
Thu 08:58:12 PM 33.7333 -84.7833 168° South 211 243 6,400 -1,700 Descending Atlanta TRACON
Thu 08:59:12 PM 33.7000 -84.7500 140° Southeast 220 253 4,600 -1,200 Descending Atlanta TRACON
Thu 09:00:12 PM 33.6667 -84.6833 121° Southeast 219 252 4,000 -350 Descending Atlanta TRACON
Thu 09:01:12 PM 33.6500 -84.6167 107° East 213 245 3,900 -100 Descending Atlanta TRACON

Login

Don't have an account? Register now (free) for customized features, flight alerts, and more!